Terminal Aerodrome Forecast
Issued by NWS

Current Version | Previous Version | Graphics & Text | Print | Product List | Glossary On
Versions: 1 2 3 4 5 6 7 8 9 10 11 12 13 14 15 16 17 18 19 20 21 22 23 24
507
FTUS41 KILN 272335
TAFLUK
TAF
KLUK 272335Z 2800/2824 15008KT 5SM -SHRA OVC040
      TEMPO 2800/2803 1SM -TSRA OVC025CB
     FM280300 17005KT 6SM -SHRA VCTS OVC040CB
     FM280500 20004KT 5SM -SHRA BR OVC025
     FM280800 VRB03KT 4SM BR VCSH OVC012
     FM281100 31006KT 5SM BR OVC008
     FM281600 35008KT P6SM OVC012
     FM282300 02008KT P6SM OVC025=

USA.gov is the U.S. government's official web portal to all federal, state and local government web resources and services.